map of IBE home
IBE - Airport
Location
City:  Ibagué, Tolima, Colombia
Name:Perales Airport
ICAO:SKIB
IATA:IBE

Details
Type:Airport (Aerodrome, Airfield)
Latitude:4°25'17"N (4.421333)
Longitude:75°07'57"W (-75.132521)
Elevation:2999 ft (914 m)
Variation:6.71°W (WMM2015 magnetic declination)
-0.15° annual change
Runways:1
Longest:5905 × 98 ft (1800 × 30 m), paved

Time
Time Zone:UTC-5
Local Time:

Weather
METAR:SKIB 161400Z 12005KT 9999 SCT030 26/20 A3018

Related Locations
Nearby:
Farthest:WIPO: 12418 mi / 19986 km
Batu Raja [Gatot Subrato], LA, ID

Find:

   beyond  
but within

Other Information
Maps:
NOTAMs:
Links:
Sources:

  
  • flag of Colombia
  • flag of Tolima
  

Sectional Chart

Flight Planning
at skyvector.com

Satellite Image

Google Maps Satellite view

 

Copyright © 2004-2018 Karl L. Swartz. All rights reserved.
The Great Circle Mapper name and logo are trademarks of the Great Circle Mapper.
All other trademarks mentioned herein belong to their respective owners.
Please see credits for attibutions and further copyright information.

  Follow gcmap on Facebook Follow gcmap on Twitter Follow gcmap on Google+ GCmap on LinkedIn

hCard Microformat

Geo Microformat